Terminal Aerodrome Forecast
Issued by NWS Shreveport, LA

Home | Current Version | Previous Version | Text Only | Print | Product List | Glossary On
Versions: 1 2 3 4 5 6 7 8 9 10 11 12 13 14 15 16 17 18 19 20 21 22 23 24
000
FTUS44 KSHV 231742
TAFMLU
TAF
KMLU 231742Z 2318/2418 32008KT P6SM SCT030 OVC040
     FM231900 35012G18KT P6SM SCT025 BKN040
     FM232100 35012KT P6SM BKN045
     FM240000 VRB03KT P6SM SKC
     FM241500 32009KT P6SM SKC=

USA.gov is the U.S. government's official web portal to all federal, state and local government web resources and services.